createdAt,value
2022-09-16T00:01:55.103Z,53.35
2022-09-16T00:04:21.564Z,67.97
2022-09-16T00:06:47.834Z,70.03
2022-09-16T00:09:14.094Z,62.97
2022-09-16T00:11:40.372Z,66.20
2022-09-16T00:14:06.767Z,52.80
2022-09-16T00:16:33.079Z,58.65
2022-09-16T00:18:59.814Z,51.80
2022-09-16T00:21:26.086Z,51.75
2022-09-16T00:23:52.373Z,49.75
2022-09-16T00:26:18.666Z,53.95
2022-09-16T00:28:44.921Z,50.15
2022-09-16T00:31:11.481Z,49.60
2022-09-16T00:33:37.848Z,55.58
2022-09-16T00:36:04.109Z,52.70
2022-09-16T00:38:30.963Z,53.75
2022-09-16T00:40:57.216Z,79.25
2022-09-16T00:43:23.612Z,50.92
2022-09-16T00:45:49.867Z,97.13
2022-09-16T00:48:16.138Z,94.45
2022-09-16T00:50:42.400Z,133.63
2022-09-16T00:53:08.669Z,144.23
2022-09-16T00:55:34.920Z,93.40
2022-09-16T00:58:01.229Z,91.63
2022-09-16T01:00:27.539Z,86.18
2022-09-16T01:02:53.981Z,107.18
2022-09-16T01:05:20.243Z,60.38
2022-09-16T01:07:46.568Z,105.45
2022-09-16T01:10:12.839Z,131.30
2022-09-16T01:12:39.107Z,74.00
2022-09-16T01:15:06.209Z,84.85
2022-09-16T01:17:32.408Z,73.23
2022-09-16T01:19:58.724Z,88.13
2022-09-16T01:22:24.983Z,64.90
2022-09-16T01:24:51.306Z,131.18
2022-09-16T01:27:17.563Z,149.70
2022-09-16T01:29:43.836Z,139.02
2022-09-16T01:32:10.097Z,119.85
2022-09-16T01:34:36.505Z,104.50
2022-09-16T01:37:02.943Z,99.60
2022-09-16T01:39:29.198Z,140.93
2022-09-16T01:41:55.458Z,108.57
2022-09-16T01:44:21.921Z,110.50
2022-09-16T01:46:48.342Z,123.70
2022-09-16T01:49:14.666Z,93.97
2022-09-16T01:51:40.929Z,89.85
2022-09-16T01:54:07.227Z,77.65
2022-09-16T01:56:33.491Z,75.72
2022-09-16T01:58:59.754Z,109.88
2022-09-16T02:01:26.130Z,100.70
2022-09-16T02:03:52.398Z,84.88
2022-09-16T02:06:18.991Z,96.55
2022-09-16T02:08:45.683Z,84.97
2022-09-16T02:11:11.972Z,80.28
2022-09-16T02:13:38.241Z,103.03
2022-09-16T02:16:04.628Z,80.90
2022-09-16T02:18:30.949Z,112.03
2022-09-16T02:20:57.208Z,86.38
2022-09-16T02:23:23.472Z,103.65
2022-09-16T02:25:49.746Z,114.75
2022-09-16T02:28:15.988Z,59.90
2022-09-16T02:30:42.256Z,70.07
2022-09-16T02:33:09.328Z,58.63
2022-09-16T02:35:36.973Z,41.27
2022-09-16T02:38:03.270Z,42.00
2022-09-16T02:40:29.578Z,45.58
2022-09-16T02:42:56.142Z,47.50
2022-09-16T02:45:22.409Z,50.25
2022-09-16T02:47:48.667Z,48.38
2022-09-16T02:50:14.933Z,52.40
2022-09-16T02:52:42.229Z,48.67
2022-09-16T02:55:08.491Z,51.35
2022-09-16T02:57:34.749Z,58.80
2022-09-16T03:00:01.011Z,62.90
2022-09-16T03:02:27.443Z,65.32
2022-09-16T03:04:53.816Z,66.03
2022-09-16T03:07:20.349Z,63.50
2022-09-16T03:09:46.623Z,58.15
2022-09-16T03:12:12.895Z,43.42
2022-09-16T03:14:39.165Z,47.55
2022-09-16T03:17:05.419Z,39.78
2022-09-16T03:19:31.714Z,46.97
2022-09-16T03:21:57.976Z,41.83
2022-09-16T03:24:24.260Z,46.67
2022-09-16T03:26:50.702Z,46.78
2022-09-16T03:29:17.839Z,41.70
2022-09-16T03:31:44.041Z,55.30
2022-09-16T03:34:10.323Z,56.10
2022-09-16T03:36:36.881Z,61.75
2022-09-16T03:39:03.135Z,68.50
2022-09-16T03:41:29.407Z,63.95
2022-09-16T03:43:58.157Z,61.95
2022-09-16T03:46:28.909Z,55.20
2022-09-16T03:48:55.211Z,48.67
2022-09-16T03:51:21.491Z,55.00
2022-09-16T03:53:47.908Z,56.63
2022-09-16T03:56:14.207Z,51.50
2022-09-16T03:58:40.465Z,50.53
2022-09-16T04:01:06.778Z,49.97
2022-09-16T04:03:33.532Z,56.08
2022-09-16T04:05:59.880Z,48.33
2022-09-16T04:08:26.136Z,49.40
2022-09-16T04:10:52.409Z,45.08
2022-09-16T04:13:18.668Z,44.72
2022-09-16T04:15:44.956Z,42.17
2022-09-16T04:18:11.248Z,46.03
2022-09-16T04:20:37.513Z,45.22
2022-09-16T04:23:03.791Z,49.88
2022-09-16T04:25:30.232Z,45.33
2022-09-16T04:27:57.149Z,43.40
2022-09-16T04:30:23.546Z,47.45
2022-09-16T04:32:49.805Z,46.25
2022-09-16T04:35:19.382Z,47.25
2022-09-16T04:37:45.644Z,51.40
2022-09-16T04:40:11.967Z,46.60
2022-09-16T04:42:38.277Z,49.90
2022-09-16T04:45:04.537Z,48.35
2022-09-16T04:47:30.806Z,49.38
2022-09-16T04:49:57.121Z,55.45
2022-09-16T04:52:23.375Z,48.42
2022-09-16T04:54:49.653Z,51.35
2022-09-16T04:57:15.916Z,52.00
2022-09-16T04:59:42.347Z,47.95
2022-09-16T05:02:08.605Z,49.35
2022-09-16T05:04:34.960Z,56.15
2022-09-16T05:07:01.257Z,54.92
2022-09-16T05:09:27.582Z,60.78
2022-09-16T05:11:54.117Z,62.22
2022-09-16T05:14:23.807Z,79.38
2022-09-16T05:16:50.070Z,66.90
2022-09-16T05:19:16.387Z,53.65
2022-09-16T05:21:42.663Z,49.72
2022-09-16T05:24:08.966Z,56.17
2022-09-16T05:26:35.326Z,62.65
2022-09-16T05:31:52.121Z,75.63
2022-09-16T05:34:18.532Z,76.95
2022-09-16T05:36:45.034Z,76.82
2022-09-16T05:39:23.145Z,90.00
2022-09-16T05:41:50.885Z,113.80
2022-09-16T05:44:17.176Z,116.13
2022-09-16T05:46:43.811Z,104.45
2022-09-16T05:49:10.079Z,107.22
2022-09-16T05:51:36.468Z,91.60
2022-09-16T05:54:02.746Z,102.47
2022-09-16T05:56:29.975Z,92.63
2022-09-16T05:58:56.261Z,138.73
2022-09-16T06:01:22.542Z,133.40
2022-09-16T06:03:48.812Z,126.07
2022-09-16T06:06:15.091Z,117.65
2022-09-16T06:08:41.352Z,113.03
2022-09-16T06:11:07.614Z,117.28
2022-09-16T06:13:33.892Z,108.07
2022-09-16T06:16:00.200Z,103.90
2022-09-16T06:18:26.496Z,111.70
2022-09-16T06:20:52.757Z,112.28
2022-09-16T06:23:19.012Z,116.25
2022-09-16T06:25:45.278Z,110.80
2022-09-16T06:28:11.584Z,118.60
2022-09-16T06:30:37.889Z,108.72
2022-09-16T06:33:04.179Z,137.07
2022-09-16T06:35:30.449Z,137.88
2022-09-16T06:37:56.713Z,102.20
2022-09-16T06:40:23.014Z,116.82
2022-09-16T06:42:49.301Z,121.97
2022-09-16T06:45:15.755Z,111.53
2022-09-16T06:47:42.012Z,112.78
2022-09-16T06:50:08.290Z,109.97
2022-09-16T06:52:35.156Z,112.50
2022-09-16T06:55:01.438Z,85.95
2022-09-16T06:57:27.696Z,82.88
2022-09-16T06:59:53.951Z,107.60
2022-09-16T07:02:20.872Z,86.63
2022-09-16T07:04:47.159Z,111.60
2022-09-16T07:07:13.427Z,116.97
2022-09-16T07:09:39.692Z,104.53
2022-09-16T07:12:05.951Z,82.35
2022-09-16T07:14:35.292Z,90.88
2022-09-16T07:17:01.661Z,142.95
2022-09-16T07:19:28.025Z,139.90
2022-09-16T07:21:54.302Z,113.03
2022-09-16T07:24:20.576Z,124.97
2022-09-16T07:26:46.865Z,86.35
2022-09-16T07:29:13.147Z,86.85
2022-09-16T07:31:39.417Z,71.05
2022-09-16T07:34:05.687Z,71.50
2022-09-16T07:36:33.452Z,183.10
2022-09-16T07:38:59.699Z,60.03
2022-09-16T07:41:26.118Z,54.55
2022-09-16T07:43:52.454Z,49.83
2022-09-16T07:46:18.833Z,68.38
2022-09-16T07:48:45.228Z,60.10
2022-09-16T07:51:11.948Z,71.72
2022-09-16T07:53:38.220Z,63.00
2022-09-16T07:56:04.475Z,63.05
2022-09-16T07:58:30.763Z,66.47
2022-09-16T08:01:00.720Z,79.00
2022-09-16T08:03:29.745Z,78.63
2022-09-16T08:05:56.012Z,82.68
2022-09-16T08:08:22.356Z,85.72
2022-09-16T08:10:48.738Z,85.88
2022-09-16T08:13:14.991Z,98.60
2022-09-16T08:15:41.392Z,113.10
2022-09-16T08:18:07.653Z,96.10
2022-09-16T08:20:33.946Z,88.45
2022-09-16T08:23:00.341Z,80.65
2022-09-16T08:25:26.920Z,80.82
2022-09-16T08:27:55.674Z,75.65
2022-09-16T08:30:22.710Z,68.65
2022-09-16T08:32:48.971Z,60.97
2022-09-16T08:35:15.229Z,61.88
2022-09-16T08:37:41.485Z,69.72
2022-09-16T08:40:07.840Z,73.82
2022-09-16T08:42:34.144Z,146.95
2022-09-16T08:45:00.438Z,101.68
2022-09-16T08:47:27.546Z,94.13
2022-09-16T08:49:54.316Z,142.00
2022-09-16T08:52:20.571Z,108.90
2022-09-16T08:54:46.833Z,102.18
2022-09-16T08:57:13.093Z,89.47
2022-09-16T08:59:39.424Z,89.35
2022-09-16T09:02:09.425Z,82.57
2022-09-16T09:04:36.198Z,104.45
2022-09-16T09:07:02.466Z,110.15
2022-09-16T09:09:28.746Z,103.00
2022-09-16T09:11:55.263Z,116.20
2022-09-16T09:14:23.125Z,100.28
2022-09-16T09:16:49.511Z,111.80
2022-09-16T09:19:15.833Z,115.28
2022-09-16T09:21:42.091Z,106.68
2022-09-16T09:24:08.360Z,101.95
2022-09-16T09:26:34.634Z,106.97
2022-09-16T09:29:00.938Z,108.40
2022-09-16T09:31:27.215Z,88.95
2022-09-16T09:36:25.183Z,104.28
2022-09-16T09:38:51.497Z,95.10
2022-09-16T09:41:17.868Z,95.43
2022-09-16T09:43:44.148Z,90.60
2022-09-16T09:46:10.458Z,109.25
2022-09-16T09:48:36.786Z,112.28
2022-09-16T09:51:05.525Z,115.55
2022-09-16T09:53:32.754Z,119.22
2022-09-16T09:55:59.033Z,91.60
2022-09-16T09:58:25.306Z,104.45
2022-09-16T10:00:55.979Z,81.90
2022-09-16T10:03:22.365Z,119.57
2022-09-16T10:05:48.633Z,117.38
2022-09-16T10:08:16.582Z,103.28
2022-09-16T10:10:43.191Z,85.82
2022-09-16T10:13:09.452Z,69.90
2022-09-16T10:15:35.713Z,107.53
2022-09-16T10:18:03.197Z,102.53
2022-09-16T10:20:29.518Z,113.75
2022-09-16T10:22:55.802Z,113.97
2022-09-16T10:25:22.062Z,81.38
2022-09-16T10:27:48.322Z,61.25
2022-09-16T10:30:15.187Z,67.88
2022-09-16T10:32:41.583Z,73.27
2022-09-16T10:35:07.843Z,69.00
2022-09-16T10:37:34.115Z,62.63
2022-09-16T10:40:01.801Z,72.75
2022-09-16T10:42:28.131Z,57.28
2022-09-16T10:44:54.397Z,62.65
2022-09-16T10:47:20.663Z,80.72
2022-09-16T10:49:47.649Z,66.53
2022-09-16T10:52:13.944Z,47.40
2022-09-16T10:54:40.253Z,65.10
2022-09-16T10:57:06.533Z,62.97
2022-09-16T10:59:32.791Z,72.18
2022-09-16T11:01:59.235Z,110.70
2022-09-16T11:04:25.598Z,116.47
2022-09-16T11:06:51.993Z,104.03
2022-09-16T11:09:18.252Z,111.82
2022-09-16T11:11:44.825Z,147.65
2022-09-16T11:14:11.141Z,192.60
2022-09-16T11:16:37.479Z,168.70
2022-09-16T11:19:04.118Z,200.65
2022-09-16T11:21:30.575Z,171.18
2022-09-16T11:23:56.846Z,295.50
2022-09-16T11:26:23.112Z,168.85
2022-09-16T11:28:49.378Z,145.65
2022-09-16T11:31:15.686Z,123.90
2022-09-16T11:33:41.985Z,107.20
2022-09-16T11:36:08.305Z,104.88
2022-09-16T11:38:42.390Z,81.97
2022-09-16T11:41:11.746Z,75.55
2022-09-16T11:43:38.015Z,79.50
2022-09-16T11:46:04.374Z,121.22
2022-09-16T11:48:30.649Z,260.63
2022-09-16T11:50:56.931Z,189.90
2022-09-16T11:53:26.375Z,65.63
2022-09-16T11:55:55.281Z,72.75
2022-09-16T11:58:21.545Z,74.95
2022-09-16T12:00:47.795Z,75.53
2022-09-16T12:03:14.102Z,77.35
2022-09-16T12:05:40.417Z,107.47
2022-09-16T12:08:06.706Z,118.45
2022-09-16T12:10:32.981Z,179.05
2022-09-16T12:12:59.240Z,139.77
2022-09-16T12:15:28.694Z,82.38
2022-09-16T12:17:55.056Z,116.53
2022-09-16T12:20:21.324Z,82.78
2022-09-16T12:22:47.870Z,107.55
2022-09-16T12:25:14.147Z,233.77
2022-09-16T12:27:40.410Z,124.47
2022-09-16T12:30:06.761Z,92.47
2022-09-16T12:32:33.016Z,123.43
2022-09-16T12:34:59.302Z,163.63
2022-09-16T12:37:25.551Z,136.30
2022-09-16T12:39:51.866Z,71.32
2022-09-16T12:42:18.159Z,106.45
2022-09-16T12:44:44.417Z,133.57
2022-09-16T12:47:10.737Z,123.13
2022-09-16T12:49:37.432Z,102.85
2022-09-16T12:52:03.831Z,100.07
2022-09-16T12:54:32.093Z,80.32
2022-09-16T12:57:04.556Z,73.43
2022-09-16T12:59:30.817Z,123.35
2022-09-16T13:01:59.807Z,115.18
2022-09-16T13:04:26.396Z,127.68
2022-09-16T13:06:52.680Z,100.72
2022-09-16T13:09:19.048Z,70.60
2022-09-16T13:14:32.151Z,61.05
2022-09-16T13:16:58.410Z,63.20
2022-09-16T13:19:24.710Z,50.55
2022-09-16T13:21:50.967Z,54.95
2022-09-16T13:24:17.229Z,56.83
2022-09-16T13:26:43.475Z,59.72
2022-09-16T13:29:09.730Z,81.40
2022-09-16T13:31:36.209Z,100.43
2022-09-16T13:34:02.670Z,116.80
2022-09-16T13:36:30.308Z,56.78
2022-09-16T13:38:56.635Z,62.08
2022-09-16T13:41:22.921Z,87.60
2022-09-16T13:43:49.997Z,107.53
2022-09-16T13:46:16.758Z,83.23
2022-09-16T13:48:43.083Z,78.32
2022-09-16T13:51:09.360Z,53.88
2022-09-16T13:53:36.519Z,48.85
2022-09-16T13:56:02.796Z,47.00
2022-09-16T13:58:29.065Z,42.25
2022-09-16T14:00:55.376Z,65.30
2022-09-16T14:03:21.905Z,60.25
2022-09-16T14:05:48.244Z,58.95
2022-09-16T14:08:14.554Z,67.07
2022-09-16T14:10:40.799Z,77.78
2022-09-16T14:13:07.441Z,57.67
2022-09-16T14:15:33.727Z,77.93
2022-09-16T14:18:00.024Z,82.97
2022-09-16T14:20:26.276Z,50.22
2022-09-16T14:22:52.531Z,42.92
2022-09-16T14:25:28.601Z,60.50
2022-09-16T14:27:58.868Z,63.70
2022-09-16T14:30:25.192Z,96.70
2022-09-16T14:32:51.488Z,67.38
2022-09-16T14:35:17.763Z,68.45
2022-09-16T14:37:44.028Z,62.00
2022-09-16T14:40:10.340Z,64.72
2022-09-16T14:42:36.633Z,59.35
2022-09-16T14:45:02.906Z,57.42
2022-09-16T14:47:49.620Z,48.00
2022-09-16T14:50:15.577Z,52.80
2022-09-16T14:52:42.241Z,60.88
2022-09-16T14:55:09.583Z,45.88
2022-09-16T14:57:35.867Z,49.65
2022-09-16T15:00:02.186Z,54.55
2022-09-16T15:02:28.604Z,57.78
2022-09-16T15:04:54.887Z,56.83
2022-09-16T15:07:21.148Z,56.22
2022-09-16T15:09:47.477Z,52.42
2022-09-16T15:12:13.741Z,51.63
2022-09-16T15:14:39.987Z,54.28
2022-09-16T15:17:06.244Z,54.38
2022-09-16T15:19:32.517Z,82.07
2022-09-16T15:21:58.793Z,51.05
2022-09-16T15:24:26.030Z,65.60
2022-09-16T15:26:53.716Z,66.35
2022-09-16T15:29:23.034Z,58.55
2022-09-16T15:31:50.287Z,58.30
2022-09-16T15:34:18.469Z,58.58
2022-09-16T15:36:44.985Z,53.53
2022-09-16T15:39:11.248Z,53.70
2022-09-16T15:41:37.617Z,51.88
2022-09-16T15:44:03.871Z,56.00
2022-09-16T15:46:30.936Z,59.88
2022-09-16T15:48:57.157Z,57.67
2022-09-16T15:51:28.364Z,55.28
2022-09-16T15:53:55.436Z,52.00
2022-09-16T15:56:22.588Z,46.67
2022-09-16T15:58:48.881Z,46.47
2022-09-16T16:01:19.175Z,45.03
2022-09-16T16:03:45.528Z,45.95
2022-09-16T16:06:11.785Z,45.85
2022-09-16T16:08:38.065Z,45.97
2022-09-16T16:11:04.333Z,55.33
2022-09-16T16:13:30.608Z,45.85
2022-09-16T16:15:56.930Z,45.60
2022-09-16T16:18:23.205Z,46.90
2022-09-16T16:20:49.541Z,42.90
2022-09-16T16:23:16.166Z,44.65
2022-09-16T16:25:42.616Z,45.72
2022-09-16T16:28:08.955Z,38.20
2022-09-16T16:30:35.555Z,40.75
2022-09-16T16:33:01.819Z,42.60
2022-09-16T16:35:28.089Z,49.15
2022-09-16T16:37:54.518Z,47.75
2022-09-16T16:40:21.152Z,51.15
2022-09-16T16:42:47.451Z,52.88
2022-09-16T16:45:13.820Z,58.13
2022-09-16T16:47:40.149Z,73.38
2022-09-16T16:50:06.489Z,78.00
2022-09-16T16:52:33.225Z,77.40
2022-09-16T16:54:59.528Z,74.68
2022-09-16T16:57:25.787Z,83.03
2022-09-16T16:59:52.186Z,84.18
2022-09-16T17:02:18.504Z,75.80
2022-09-16T17:04:44.786Z,81.63
2022-09-16T17:07:27.733Z,67.75
2022-09-16T17:09:54.332Z,64.38
2022-09-16T17:12:20.655Z,64.50
2022-09-16T17:14:47.076Z,58.58
2022-09-16T17:17:13.361Z,64.57
2022-09-16T17:19:39.784Z,73.57
2022-09-16T17:22:06.228Z,71.57
2022-09-16T17:24:33.044Z,73.85
2022-09-16T17:27:00.164Z,80.50
2022-09-16T17:29:26.345Z,56.43
2022-09-16T17:31:52.608Z,68.75
2022-09-16T17:34:18.864Z,77.45
2022-09-16T17:36:45.226Z,48.38
2022-09-16T17:39:11.649Z,61.05
2022-09-16T17:41:37.928Z,67.75
2022-09-16T17:44:04.183Z,61.08
2022-09-16T17:46:30.927Z,55.55
2022-09-16T17:48:57.361Z,58.00
2022-09-16T17:51:23.638Z,60.60
2022-09-16T17:53:49.934Z,69.45
2022-09-16T17:56:16.200Z,75.85
2022-09-16T17:58:42.455Z,83.25
2022-09-16T18:01:08.724Z,79.45
2022-09-16T18:03:34.991Z,68.97
2022-09-16T18:06:01.255Z,62.95
2022-09-16T18:08:27.508Z,60.22
2022-09-16T18:10:53.766Z,60.20
2022-09-16T18:13:20.021Z,57.20
2022-09-16T18:15:46.468Z,52.20
2022-09-16T18:18:12.719Z,52.50
2022-09-16T18:20:39.126Z,50.88
2022-09-16T18:23:05.385Z,49.45
2022-09-16T18:25:31.646Z,44.38
2022-09-16T18:27:57.903Z,45.45
2022-09-16T18:30:24.972Z,100.60
2022-09-16T18:32:51.191Z,83.63
2022-09-16T18:35:17.461Z,85.28
2022-09-16T18:37:43.741Z,68.93
2022-09-16T18:40:10.092Z,73.68
2022-09-16T18:42:36.396Z,90.93
2022-09-16T18:45:02.653Z,75.70
2022-09-16T18:47:32.045Z,60.63
2022-09-16T18:49:58.315Z,172.75
2022-09-16T18:52:24.583Z,155.75
2022-09-16T18:54:50.847Z,123.53
2022-09-16T18:57:17.585Z,85.30
2022-09-16T18:59:43.835Z,59.88
2022-09-16T19:02:10.171Z,61.22
2022-09-16T19:04:36.479Z,64.45
2022-09-16T19:07:07.106Z,82.45
2022-09-16T19:09:33.385Z,79.47
2022-09-16T19:12:02.401Z,73.25
2022-09-16T19:14:28.690Z,83.93
2022-09-16T19:16:54.963Z,78.72
2022-09-16T19:19:21.227Z,77.93
2022-09-16T19:21:47.480Z,77.75
2022-09-16T19:24:14.293Z,85.88
2022-09-16T19:26:40.673Z,83.80
2022-09-16T19:29:07.016Z,68.28
2022-09-16T19:31:33.523Z,67.60
2022-09-16T19:33:59.797Z,74.32
2022-09-16T19:36:26.489Z,76.32
2022-09-16T19:38:52.748Z,82.05
2022-09-16T19:41:19.025Z,108.55
2022-09-16T19:43:45.288Z,113.95
2022-09-16T19:46:11.650Z,113.78
2022-09-16T19:48:37.966Z,110.53
2022-09-16T19:51:04.239Z,124.00
2022-09-16T19:53:31.004Z,118.05
2022-09-16T19:55:57.527Z,109.20
2022-09-16T19:58:23.790Z,106.72
2022-09-16T20:00:56.212Z,105.28
2022-09-16T20:03:22.827Z,109.65
2022-09-16T20:05:49.963Z,127.03
2022-09-16T20:08:16.177Z,142.87
2022-09-16T20:10:42.432Z,138.18
2022-09-16T20:13:08.697Z,164.00
2022-09-16T20:15:34.994Z,149.25
2022-09-16T20:18:01.255Z,135.90
2022-09-16T20:20:27.577Z,137.85
2022-09-16T20:22:53.862Z,141.32
2022-09-16T20:25:23.376Z,124.60
2022-09-16T20:27:50.051Z,96.07
2022-09-16T20:30:16.307Z,99.18
2022-09-16T20:32:42.651Z,99.78
2022-09-16T20:35:09.281Z,101.35
2022-09-16T20:37:35.538Z,101.20
2022-09-16T20:40:01.880Z,119.43
2022-09-16T20:42:30.557Z,123.30
2022-09-16T20:44:56.816Z,123.30
2022-09-16T20:47:23.099Z,123.53
2022-09-16T20:49:49.373Z,125.57
2022-09-16T20:52:15.631Z,114.95
2022-09-16T20:54:41.897Z,110.20
2022-09-16T20:57:08.169Z,118.57
2022-09-16T20:59:34.464Z,89.03
2022-09-16T21:02:04.161Z,105.93
2022-09-16T21:04:30.494Z,94.70
2022-09-16T21:06:56.767Z,129.27
2022-09-16T21:09:23.024Z,126.15
2022-09-16T21:11:51.325Z,125.65
2022-09-16T21:14:17.955Z,126.90
2022-09-16T21:16:44.631Z,106.82
2022-09-16T21:19:10.928Z,116.72
2022-09-16T21:21:37.234Z,128.38
2022-09-16T21:24:03.493Z,138.45
2022-09-16T21:26:30.117Z,141.48
2022-09-16T21:28:56.971Z,142.45
2022-09-16T21:31:23.898Z,137.15
2022-09-16T21:33:51.832Z,133.27
2022-09-16T21:36:18.237Z,131.38
2022-09-16T21:38:45.630Z,137.52
2022-09-16T21:41:14.988Z,104.30
2022-09-16T21:43:41.769Z,100.38
2022-09-16T21:46:08.365Z,117.70
2022-09-16T21:48:34.818Z,92.60
2022-09-16T21:51:01.112Z,88.55
2022-09-16T21:53:27.384Z,75.75
2022-09-16T21:55:53.652Z,100.50
2022-09-16T21:58:20.014Z,84.22
2022-09-16T22:00:46.350Z,66.72
2022-09-16T22:03:12.677Z,74.15
2022-09-16T22:05:38.991Z,63.50
2022-09-16T22:08:05.313Z,61.92
2022-09-16T22:10:31.601Z,63.55
2022-09-16T22:12:58.000Z,66.53
2022-09-16T22:15:24.451Z,68.75
2022-09-16T22:17:54.065Z,67.20
2022-09-16T22:20:20.322Z,64.28
2022-09-16T22:22:46.610Z,53.17
2022-09-16T22:25:12.864Z,58.10
2022-09-16T22:27:39.116Z,54.05
2022-09-16T22:30:05.422Z,70.30
2022-09-16T22:32:31.692Z,73.60
2022-09-16T22:34:57.962Z,66.10
2022-09-16T22:37:24.229Z,69.40
2022-09-16T22:39:51.125Z,58.80
2022-09-16T22:42:17.432Z,63.97
2022-09-16T22:44:43.687Z,65.82
2022-09-16T22:47:09.945Z,65.80
2022-09-16T22:49:36.205Z,67.43
2022-09-16T22:52:02.471Z,71.35
2022-09-16T22:54:28.769Z,67.90
2022-09-16T22:56:55.037Z,82.93
2022-09-16T22:59:21.297Z,88.05
2022-09-16T23:01:47.698Z,97.03
2022-09-16T23:04:14.046Z,100.38
2022-09-16T23:06:40.692Z,113.30
2022-09-16T23:09:06.955Z,114.75
2022-09-16T23:11:33.213Z,106.22
2022-09-16T23:14:00.093Z,113.38
2022-09-16T23:16:26.779Z,116.72
2022-09-16T23:18:53.402Z,116.75
2022-09-16T23:21:19.670Z,114.47
2022-09-16T23:23:45.969Z,112.88
2022-09-16T23:26:12.241Z,95.13
2022-09-16T23:28:38.502Z,112.95
2022-09-16T23:31:05.035Z,110.43
2022-09-16T23:33:31.339Z,114.47
2022-09-16T23:35:58.130Z,123.43
2022-09-16T23:38:24.384Z,137.00
2022-09-16T23:40:50.669Z,130.00
2022-09-16T23:43:16.932Z,125.63
2022-09-16T23:45:43.187Z,119.10
2022-09-16T23:48:09.447Z,126.15
2022-09-16T23:50:35.715Z,129.80
2022-09-16T23:53:01.993Z,117.72
2022-09-16T23:55:28.268Z,99.38
2022-09-16T23:57:54.884Z,99.20
